sensor_id;sensor_type;location;lat;lon;timestamp;pressure;altitude;pressure_sealevel;temperature;humidity
71361;BME280;59166;48.908;1.870;2022-07-30T00:03:50;100631.22;;;20.27;58.30
71361;BME280;59166;48.908;1.870;2022-07-30T00:08:51;100638.13;;;20.16;58.69
71361;BME280;59166;48.908;1.870;2022-07-30T00:13:53;100634.84;;;20.06;59.52
71361;BME280;59166;48.908;1.870;2022-07-30T00:18:54;100635.50;;;20.03;59.82
71361;BME280;59166;48.908;1.870;2022-07-30T00:23:54;100639.22;;;20.07;59.21
71361;BME280;59166;48.908;1.870;2022-07-30T00:28:56;100637.78;;;20.09;58.83
71361;BME280;59166;48.908;1.870;2022-07-30T00:33:57;100632.66;;;19.94;59.04
71361;BME280;59166;48.908;1.870;2022-07-30T00:38:58;100622.00;;;19.92;59.21
71361;BME280;59166;48.908;1.870;2022-07-30T00:44:00;100612.47;;;19.90;59.03
71361;BME280;59166;48.908;1.870;2022-07-30T00:49:00;100614.97;;;19.78;59.41
71361;BME280;59166;48.908;1.870;2022-07-30T00:54:01;100611.75;;;19.76;59.73
71361;BME280;59166;48.908;1.870;2022-07-30T00:59:03;100620.91;;;19.71;58.27
71361;BME280;59166;48.908;1.870;2022-07-30T01:04:04;100623.94;;;19.70;57.39
71361;BME280;59166;48.908;1.870;2022-07-30T01:09:05;100616.50;;;19.62;60.05
71361;BME280;59166;48.908;1.870;2022-07-30T01:14:08;100617.13;;;19.59;57.31
71361;BME280;59166;48.908;1.870;2022-07-30T01:19:13;100603.53;;;19.54;58.68
71361;BME280;59166;48.908;1.870;2022-07-30T01:24:23;100602.53;;;19.49;59.91
71361;BME280;59166;48.908;1.870;2022-07-30T01:29:28;100609.09;;;19.40;57.49
71361;BME280;59166;48.908;1.870;2022-07-30T01:34:33;100605.03;;;19.37;59.41
71361;BME280;59166;48.908;1.870;2022-07-30T01:39:36;100601.81;;;19.35;59.07
71361;BME280;59166;48.908;1.870;2022-07-30T01:44:39;100596.88;;;19.24;59.25
71361;BME280;59166;48.908;1.870;2022-07-30T01:49:43;100599.44;;;19.20;59.21
71361;BME280;59166;48.908;1.870;2022-07-30T01:54:47;100602.41;;;19.10;59.48
71361;BME280;59166;48.908;1.870;2022-07-30T01:59:56;100600.75;;;19.09;59.58
71361;BME280;59166;48.908;1.870;2022-07-30T02:04:58;100604.34;;;18.96;59.72
71361;BME280;59166;48.908;1.870;2022-07-30T02:10:13;100607.22;;;18.91;60.86
71361;BME280;59166;48.908;1.870;2022-07-30T02:15:18;100600.94;;;18.90;59.99
71361;BME280;59166;48.908;1.870;2022-07-30T02:20:23;100598.72;;;18.79;61.42
71361;BME280;59166;48.908;1.870;2022-07-30T02:25:26;100595.47;;;18.77;61.16
71361;BME280;59166;48.908;1.870;2022-07-30T02:30:32;100586.59;;;18.71;61.30
71361;BME280;59166;48.908;1.870;2022-07-30T02:35:34;100588.81;;;18.56;61.40
71361;BME280;59166;48.908;1.870;2022-07-30T02:40:39;100580.22;;;18.35;62.54
71361;BME280;59166;48.908;1.870;2022-07-30T02:45:43;100595.94;;;18.29;63.12
71361;BME280;59166;48.908;1.870;2022-07-30T02:50:46;100596.84;;;18.25;62.93
71361;BME280;59166;48.908;1.870;2022-07-30T02:55:48;100593.91;;;18.21;63.48
71361;BME280;59166;48.908;1.870;2022-07-30T03:00:53;100595.03;;;18.20;63.48
71361;BME280;59166;48.908;1.870;2022-07-30T03:05:55;100593.44;;;18.01;64.62
71361;BME280;59166;48.908;1.870;2022-07-30T03:10:57;100591.53;;;18.01;64.36
71361;BME280;59166;48.908;1.870;2022-07-30T03:16:01;100593.44;;;18.01;63.99
71361;BME280;59166;48.908;1.870;2022-07-30T03:21:06;100594.38;;;17.96;64.29
71361;BME280;59166;48.908;1.870;2022-07-30T03:26:08;100582.31;;;17.83;64.75
71361;BME280;59166;48.908;1.870;2022-07-30T03:31:13;100594.16;;;17.79;65.13
71361;BME280;59166;48.908;1.870;2022-07-30T03:36:14;100594.75;;;17.76;66.15
71361;BME280;59166;48.908;1.870;2022-07-30T03:41:16;100589.78;;;17.78;64.63
71361;BME280;59166;48.908;1.870;2022-07-30T03:46:19;100587.00;;;17.64;65.29
71361;BME280;59166;48.908;1.870;2022-07-30T03:51:21;100598.88;;;17.60;66.11
71361;BME280;59166;48.908;1.870;2022-07-30T03:56:22;100604.50;;;17.50;66.26
71361;BME280;59166;48.908;1.870;2022-07-30T04:01:25;100606.19;;;17.45;67.42
71361;BME280;59166;48.908;1.870;2022-07-30T04:06:26;100606.66;;;17.34;66.44
71361;BME280;59166;48.908;1.870;2022-07-30T04:11:26;100602.25;;;17.19;67.24
71361;BME280;59166;48.908;1.870;2022-07-30T04:16:36;100607.50;;;17.16;67.07
71361;BME280;59166;48.908;1.870;2022-07-30T04:21:39;100613.00;;;17.11;67.55
71361;BME280;59166;48.908;1.870;2022-07-30T04:26:41;100612.25;;;17.05;67.93
71361;BME280;59166;48.908;1.870;2022-07-30T04:31:43;100613.81;;;17.11;68.55
71361;BME280;59166;48.908;1.870;2022-07-30T04:36:44;100609.91;;;16.99;68.33
71361;BME280;59166;48.908;1.870;2022-07-30T04:41:44;100614.38;;;16.89;69.27
71361;BME280;59166;48.908;1.870;2022-07-30T04:46:47;100603.41;;;16.94;69.29
71361;BME280;59166;48.908;1.870;2022-07-30T04:51:48;100598.47;;;16.96;68.23
71361;BME280;59166;48.908;1.870;2022-07-30T04:56:50;100608.72;;;17.05;69.22
71361;BME280;59166;48.908;1.870;2022-07-30T05:01:55;100618.69;;;16.95;69.04
71361;BME280;59166;48.908;1.870;2022-07-30T05:06:56;100621.41;;;16.95;69.38
71361;BME280;59166;48.908;1.870;2022-07-30T05:11:58;100634.03;;;16.91;70.36
71361;BME280;59166;48.908;1.870;2022-07-30T05:17:00;100644.19;;;16.86;70.72
71361;BME280;59166;48.908;1.870;2022-07-30T05:22:01;100646.41;;;16.84;70.97
71361;BME280;59166;48.908;1.870;2022-07-30T05:27:01;100639.75;;;16.90;71.89
71361;BME280;59166;48.908;1.870;2022-07-30T05:32:04;100634.25;;;16.95;71.98
71361;BME280;59166;48.908;1.870;2022-07-30T05:37:05;100631.38;;;17.05;71.28
71361;BME280;59166;48.908;1.870;2022-07-30T05:42:05;100641.09;;;17.11;72.21
71361;BME280;59166;48.908;1.870;2022-07-30T05:47:07;100648.41;;;16.97;73.02
71361;BME280;59166;48.908;1.870;2022-07-30T05:52:08;100658.22;;;16.98;73.88
71361;BME280;59166;48.908;1.870;2022-07-30T05:57:09;100660.41;;;16.96;73.88
71361;BME280;59166;48.908;1.870;2022-07-30T06:02:11;100664.13;;;17.05;73.41
71361;BME280;59166;48.908;1.870;2022-07-30T06:07:11;100675.50;;;17.12;73.52
71361;BME280;59166;48.908;1.870;2022-07-30T06:12:12;100669.94;;;17.22;74.66
71361;BME280;59166;48.908;1.870;2022-07-30T06:17:14;100668.38;;;17.35;74.12
71361;BME280;59166;48.908;1.870;2022-07-30T06:22:15;100676.63;;;17.49;73.41
71361;BME280;59166;48.908;1.870;2022-07-30T06:27:15;100682.38;;;17.66;73.77
71361;BME280;59166;48.908;1.870;2022-07-30T06:32:17;100679.88;;;17.83;73.00
71361;BME280;59166;48.908;1.870;2022-07-30T06:37:18;100680.56;;;18.07;72.15
71361;BME280;59166;48.908;1.870;2022-07-30T06:42:19;100681.75;;;18.33;71.81
71361;BME280;59166;48.908;1.870;2022-07-30T06:47:21;100683.06;;;18.63;70.59
71361;BME280;59166;48.908;1.870;2022-07-30T06:52:22;100692.91;;;18.78;71.25
71361;BME280;59166;48.908;1.870;2022-07-30T06:57:22;100688.31;;;19.14;68.28
71361;BME280;59166;48.908;1.870;2022-07-30T07:02:24;100701.00;;;19.46;67.62
71361;BME280;59166;48.908;1.870;2022-07-30T07:07:25;100702.34;;;19.71;66.90
71361;BME280;59166;48.908;1.870;2022-07-30T07:12:26;100709.44;;;19.72;66.62
71361;BME280;59166;48.908;1.870;2022-07-30T07:17:28;100707.47;;;19.86;65.81
71361;BME280;59166;48.908;1.870;2022-07-30T07:22:29;100708.56;;;20.07;64.04
71361;BME280;59166;48.908;1.870;2022-07-30T07:27:30;100712.06;;;20.52;58.38
71361;BME280;59166;48.908;1.870;2022-07-30T07:32:32;100717.59;;;20.61;60.93
71361;BME280;59166;48.908;1.870;2022-07-30T07:37:32;100709.91;;;20.80;62.33
71361;BME280;59166;48.908;1.870;2022-07-30T07:42:33;100714.28;;;20.81;60.59
71361;BME280;59166;48.908;1.870;2022-07-30T07:47:43;100715.31;;;21.02;59.33
71361;BME280;59166;48.908;1.870;2022-07-30T07:52:44;100703.88;;;21.26;58.73
71361;BME280;59166;48.908;1.870;2022-07-30T07:57:44;100700.00;;;21.52;56.00
71361;BME280;59166;48.908;1.870;2022-07-30T08:02:47;100696.78;;;21.76;57.28
71361;BME280;59166;48.908;1.870;2022-07-30T08:07:48;100700.69;;;21.84;56.85
71361;BME280;59166;48.908;1.870;2022-07-30T08:12:49;100699.88;;;21.92;58.40
71361;BME280;59166;48.908;1.870;2022-07-30T08:17:51;100706.78;;;22.15;56.38
71361;BME280;59166;48.908;1.870;2022-07-30T08:22:51;100708.59;;;22.58;55.91
71361;BME280;59166;48.908;1.870;2022-07-30T08:27:52;100721.72;;;23.19;53.05
71361;BME280;59166;48.908;1.870;2022-07-30T08:32:54;100720.00;;;23.35;52.43
71361;BME280;59166;48.908;1.870;2022-07-30T08:37:55;100718.97;;;23.19;53.99
71361;BME280;59166;48.908;1.870;2022-07-30T08:42:56;100717.34;;;23.47;51.07
71361;BME280;59166;48.908;1.870;2022-07-30T08:48:01;100717.53;;;23.63;51.04
71361;BME280;59166;48.908;1.870;2022-07-30T08:53:02;100715.72;;;24.00;49.77
71361;BME280;59166;48.908;1.870;2022-07-30T08:58:04;100721.41;;;24.48;46.11
71361;BME280;59166;48.908;1.870;2022-07-30T09:03:07;100722.25;;;24.97;44.50
71361;BME280;59166;48.908;1.870;2022-07-30T09:08:07;100716.56;;;25.42;45.08
71361;BME280;59166;48.908;1.870;2022-07-30T09:13:21;100726.72;;;25.78;41.79
71361;BME280;59166;48.908;1.870;2022-07-30T09:18:29;100732.31;;;25.94;42.71
71361;BME280;59166;48.908;1.870;2022-07-30T09:23:30;100738.44;;;25.60;44.03
71361;BME280;59166;48.908;1.870;2022-07-30T09:28:32;100740.00;;;26.00;43.28
71361;BME280;59166;48.908;1.870;2022-07-30T09:33:37;100729.28;;;26.27;41.25
71361;BME280;59166;48.908;1.870;2022-07-30T09:38:46;100744.22;;;26.69;40.14
71361;BME280;59166;48.908;1.870;2022-07-30T09:43:49;100746.38;;;27.23;38.89
71361;BME280;59166;48.908;1.870;2022-07-30T09:48:51;100746.88;;;27.44;35.90
71361;BME280;59166;48.908;1.870;2022-07-30T09:54:12;100743.91;;;27.72;38.32
71361;BME280;59166;48.908;1.870;2022-07-30T09:59:25;100748.22;;;27.88;36.06
71361;BME280;59166;48.908;1.870;2022-07-30T10:04:30;100748.28;;;27.92;36.62
71361;BME280;59166;48.908;1.870;2022-07-30T10:09:34;100747.63;;;27.79;36.81
71361;BME280;59166;48.908;1.870;2022-07-30T10:14:36;100737.41;;;27.83;37.12
71361;BME280;59166;48.908;1.870;2022-07-30T10:19:39;100747.41;;;27.88;37.94
71361;BME280;59166;48.908;1.870;2022-07-30T10:24:40;100729.88;;;28.03;37.26
71361;BME280;59166;48.908;1.870;2022-07-30T10:29:41;100730.16;;;28.17;36.00
71361;BME280;59166;48.908;1.870;2022-07-30T10:34:44;100721.09;;;28.20;36.77
71361;BME280;59166;48.908;1.870;2022-07-30T10:39:51;100724.97;;;28.16;33.93
71361;BME280;59166;48.908;1.870;2022-07-30T10:45:11;100721.84;;;27.79;34.92
71361;BME280;59166;48.908;1.870;2022-07-30T10:50:18;100723.28;;;28.30;34.24
71361;BME280;59166;48.908;1.870;2022-07-30T10:55:21;100713.38;;;28.56;35.89
71361;BME280;59166;48.908;1.870;2022-07-30T11:00:22;100708.53;;;28.98;35.26
71361;BME280;59166;48.908;1.870;2022-07-30T11:05:25;100711.66;;;29.19;35.80
71361;BME280;59166;48.908;1.870;2022-07-30T11:10:37;100714.75;;;29.40;33.04
71361;BME280;59166;48.908;1.870;2022-07-30T11:15:52;100716.44;;;29.48;32.37
71361;BME280;59166;48.908;1.870;2022-07-30T11:21:18;100713.78;;;29.89;34.62
71361;BME280;59166;48.908;1.870;2022-07-30T11:26:48;100697.19;;;29.99;34.04
71361;BME280;59166;48.908;1.870;2022-07-30T11:31:49;100696.47;;;30.06;31.04
71361;BME280;59166;48.908;1.870;2022-07-30T11:37:05;100693.09;;;30.27;30.21
71361;BME280;59166;48.908;1.870;2022-07-30T11:42:26;100689.09;;;30.28;31.02
71361;BME280;59166;48.908;1.870;2022-07-30T11:47:27;100690.56;;;30.51;32.44
71361;BME280;59166;48.908;1.870;2022-07-30T11:52:29;100692.56;;;31.02;31.41
71361;BME280;59166;48.908;1.870;2022-07-30T11:57:38;100690.97;;;31.01;30.16
71361;BME280;59166;48.908;1.870;2022-07-30T12:02:39;100680.31;;;31.21;29.58
71361;BME280;59166;48.908;1.870;2022-07-30T12:07:41;100679.84;;;31.08;29.89
71361;BME280;59166;48.908;1.870;2022-07-30T12:12:42;100677.88;;;31.12;30.65
71361;BME280;59166;48.908;1.870;2022-07-30T12:17:43;100672.47;;;31.51;29.87
71361;BME280;59166;48.908;1.870;2022-07-30T12:22:45;100668.03;;;31.36;29.10
71361;BME280;59166;48.908;1.870;2022-07-30T12:27:47;100678.47;;;31.53;28.07
71361;BME280;59166;48.908;1.870;2022-07-30T12:32:48;100681.88;;;32.08;28.19
71361;BME280;59166;48.908;1.870;2022-07-30T12:38:08;100674.25;;;31.98;27.93
71361;BME280;59166;48.908;1.870;2022-07-30T12:43:08;100668.31;;;32.17;28.90
71361;BME280;59166;48.908;1.870;2022-07-30T12:48:10;100661.94;;;32.41;28.96
71361;BME280;59166;48.908;1.870;2022-07-30T12:53:12;100668.31;;;32.24;27.26
71361;BME280;59166;48.908;1.870;2022-07-30T12:58:12;100668.28;;;31.96;27.71
71361;BME280;59166;48.908;1.870;2022-07-30T13:03:19;100662.75;;;31.20;30.29
71361;BME280;59166;48.908;1.870;2022-07-30T13:08:48;100654.63;;;31.63;30.07
71361;BME280;59166;48.908;1.870;2022-07-30T13:13:49;100648.25;;;30.97;29.34
71361;BME280;59166;48.908;1.870;2022-07-30T13:18:50;100651.19;;;31.15;31.52
71361;BME280;59166;48.908;1.870;2022-07-30T13:23:52;100641.91;;;31.97;29.57
71361;BME280;59166;48.908;1.870;2022-07-30T13:28:53;100642.97;;;30.81;31.73
71361;BME280;59166;48.908;1.870;2022-07-30T13:33:53;100631.31;;;30.21;31.92
71361;BME280;59166;48.908;1.870;2022-07-30T13:38:55;100626.81;;;31.08;30.32
71361;BME280;59166;48.908;1.870;2022-07-30T13:43:56;100623.53;;;31.82;29.62
71361;BME280;59166;48.908;1.870;2022-07-30T13:48:56;100616.94;;;31.28;30.51
71361;BME280;59166;48.908;1.870;2022-07-30T13:53:59;100617.28;;;30.51;31.58
71361;BME280;59166;48.908;1.870;2022-07-30T13:58:59;100610.47;;;31.10;31.26
71361;BME280;59166;48.908;1.870;2022-07-30T14:04:00;100620.00;;;31.02;30.74
71361;BME280;59166;48.908;1.870;2022-07-30T14:09:02;100612.63;;;31.48;29.23
71361;BME280;59166;48.908;1.870;2022-07-30T14:14:03;100598.84;;;32.12;29.01
71361;BME280;59166;48.908;1.870;2022-07-30T14:19:04;100600.44;;;32.13;29.60
71361;BME280;59166;48.908;1.870;2022-07-30T14:24:06;100597.56;;;31.71;29.70
71361;BME280;59166;48.908;1.870;2022-07-30T14:29:07;100591.66;;;32.25;29.21
71361;BME280;59166;48.908;1.870;2022-07-30T14:34:08;100582.84;;;32.30;29.70
71361;BME280;59166;48.908;1.870;2022-07-30T14:39:10;100581.16;;;32.96;29.14
71361;BME280;59166;48.908;1.870;2022-07-30T14:44:11;100579.66;;;32.49;28.41
71361;BME280;59166;48.908;1.870;2022-07-30T14:49:11;100582.81;;;31.88;28.93
71361;BME280;59166;48.908;1.870;2022-07-30T14:54:13;100574.88;;;32.36;29.23
71361;BME280;59166;48.908;1.870;2022-07-30T14:59:14;100574.03;;;31.93;29.34
71361;BME280;59166;48.908;1.870;2022-07-30T15:04:15;100573.06;;;31.36;30.53
71361;BME280;59166;48.908;1.870;2022-07-30T15:09:17;100570.22;;;31.11;31.02
71361;BME280;59166;48.908;1.870;2022-07-30T15:14:17;100564.88;;;31.92;28.71
71361;BME280;59166;48.908;1.870;2022-07-30T15:19:18;100571.13;;;31.43;29.96
71361;BME280;59166;48.908;1.870;2022-07-30T15:24:20;100572.41;;;30.74;32.15
71361;BME280;59166;48.908;1.870;2022-07-30T15:29:21;100573.41;;;30.48;32.80
71361;BME280;59166;48.908;1.870;2022-07-30T15:34:21;100577.25;;;30.29;33.85
71361;BME280;59166;48.908;1.870;2022-07-30T15:39:23;100573.47;;;30.59;33.20
71361;BME280;59166;48.908;1.870;2022-07-30T15:44:24;100577.41;;;30.47;32.99
71361;BME280;59166;48.908;1.870;2022-07-30T15:49:25;100578.94;;;31.02;30.47
71361;BME280;59166;48.908;1.870;2022-07-30T15:54:27;100577.38;;;31.05;31.69
71361;BME280;59166;48.908;1.870;2022-07-30T15:59:28;100567.06;;;30.55;32.71
71361;BME280;59166;48.908;1.870;2022-07-30T16:04:29;100565.13;;;31.34;32.49
71361;BME280;59166;48.908;1.870;2022-07-30T16:09:31;100568.53;;;30.99;33.44
71361;BME280;59166;48.908;1.870;2022-07-30T16:14:31;100562.75;;;31.54;31.60
71361;BME280;59166;48.908;1.870;2022-07-30T16:19:32;100563.53;;;31.40;31.66
71361;BME280;59166;48.908;1.870;2022-07-30T16:24:34;100560.38;;;30.66;33.05
71361;BME280;59166;48.908;1.870;2022-07-30T16:29:35;100557.69;;;29.82;35.25
71361;BME280;59166;48.908;1.870;2022-07-30T16:34:36;100553.69;;;30.20;34.42
71361;BME280;59166;48.908;1.870;2022-07-30T16:39:38;100538.63;;;30.96;35.22
71361;BME280;59166;48.908;1.870;2022-07-30T16:44:38;100535.50;;;31.02;34.18
71361;BME280;59166;48.908;1.870;2022-07-30T16:49:39;100530.31;;;31.04;33.91
71361;BME280;59166;48.908;1.870;2022-07-30T16:54:41;100526.84;;;31.52;33.71
71361;BME280;59166;48.908;1.870;2022-07-30T16:59:41;100535.41;;;30.87;36.48
71361;BME280;59166;48.908;1.870;2022-07-30T17:04:42;100527.44;;;30.93;34.71
71361;BME280;59166;48.908;1.870;2022-07-30T17:09:44;100531.41;;;30.81;34.63
71361;BME280;59166;48.908;1.870;2022-07-30T17:14:45;100528.97;;;30.80;34.99
71361;BME280;59166;48.908;1.870;2022-07-30T17:19:45;100528.22;;;30.86;34.95
71361;BME280;59166;48.908;1.870;2022-07-30T17:24:47;100527.72;;;30.67;36.24
71361;BME280;59166;48.908;1.870;2022-07-30T17:29:48;100531.41;;;30.23;38.00
71361;BME280;59166;48.908;1.870;2022-07-30T17:34:48;100530.91;;;30.07;37.35
71361;BME280;59166;48.908;1.870;2022-07-30T17:39:51;100530.44;;;29.61;38.88
71361;BME280;59166;48.908;1.870;2022-07-30T17:44:51;100543.00;;;29.44;38.71
71361;BME280;59166;48.908;1.870;2022-07-30T17:49:52;100535.13;;;29.20;38.62
71361;BME280;59166;48.908;1.870;2022-07-30T17:54:54;100540.69;;;28.87;39.60
71361;BME280;59166;48.908;1.870;2022-07-30T17:59:54;100544.25;;;28.58;41.62
71361;BME280;59166;48.908;1.870;2022-07-30T18:04:55;100548.66;;;28.36;41.01
71361;BME280;59166;48.908;1.870;2022-07-30T18:09:57;100557.06;;;28.13;42.54
71361;BME280;59166;48.908;1.870;2022-07-30T18:14:58;100550.63;;;27.86;43.61
71361;BME280;59166;48.908;1.870;2022-07-30T18:19:58;100560.59;;;27.68;42.99
71361;BME280;59166;48.908;1.870;2022-07-30T18:25:00;100561.59;;;27.57;44.55
71361;BME280;59166;48.908;1.870;2022-07-30T18:30:01;100568.59;;;27.31;42.57
71361;BME280;59166;48.908;1.870;2022-07-30T18:35:02;100566.13;;;27.26;43.95
71361;BME280;59166;48.908;1.870;2022-07-30T18:40:05;100578.00;;;27.08;43.94
71361;BME280;59166;48.908;1.870;2022-07-30T18:45:07;100576.78;;;27.05;43.67
71361;BME280;59166;48.908;1.870;2022-07-30T18:50:09;100583.91;;;26.87;44.24
71361;BME280;59166;48.908;1.870;2022-07-30T18:55:11;100593.94;;;26.76;44.82
71361;BME280;59166;48.908;1.870;2022-07-30T19:00:13;100594.34;;;26.59;45.46
71361;BME280;59166;48.908;1.870;2022-07-30T19:05:14;100601.94;;;26.30;46.56
71361;BME280;59166;48.908;1.870;2022-07-30T19:10:16;100603.94;;;26.14;47.13
71361;BME280;59166;48.908;1.870;2022-07-30T19:15:17;100607.53;;;26.02;48.19
71361;BME280;59166;48.908;1.870;2022-07-30T19:20:18;100613.88;;;25.87;48.86
71361;BME280;59166;48.908;1.870;2022-07-30T19:25:20;100618.66;;;25.75;48.81
71361;BME280;59166;48.908;1.870;2022-07-30T19:30:21;100621.28;;;25.68;49.28
71361;BME280;59166;48.908;1.870;2022-07-30T19:35:22;100619.69;;;25.55;50.28
71361;BME280;59166;48.908;1.870;2022-07-30T19:40:24;100621.75;;;25.30;50.54
71361;BME280;59166;48.908;1.870;2022-07-30T19:45:24;100630.06;;;25.18;50.76
71361;BME280;59166;48.908;1.870;2022-07-30T19:50:25;100631.34;;;25.08;51.42
71361;BME280;59166;48.908;1.870;2022-07-30T19:55:27;100636.91;;;24.84;52.41
71361;BME280;59166;48.908;1.870;2022-07-30T20:00:28;100656.97;;;24.69;52.05
71361;BME280;59166;48.908;1.870;2022-07-30T20:05:29;100653.28;;;24.52;52.96
71361;BME280;59166;48.908;1.870;2022-07-30T20:10:31;100662.91;;;24.46;53.26
71361;BME280;59166;48.908;1.870;2022-07-30T20:15:32;100671.66;;;24.36;53.26
71361;BME280;59166;48.908;1.870;2022-07-30T20:20:32;100679.94;;;24.24;53.90
71361;BME280;59166;48.908;1.870;2022-07-30T20:25:34;100678.31;;;24.11;54.07
71361;BME280;59166;48.908;1.870;2022-07-30T20:30:35;100679.53;;;24.02;54.00
71361;BME280;59166;48.908;1.870;2022-07-30T20:35:36;100692.44;;;23.89;54.63
71361;BME280;59166;48.908;1.870;2022-07-30T20:40:38;100699.56;;;23.78;55.33
71361;BME280;59166;48.908;1.870;2022-07-30T20:45:39;100708.50;;;23.75;55.05
71361;BME280;59166;48.908;1.870;2022-07-30T20:50:39;100705.94;;;23.70;55.36
71361;BME280;59166;48.908;1.870;2022-07-30T20:55:41;100716.25;;;23.61;55.82
71361;BME280;59166;48.908;1.870;2022-07-30T21:00:42;100722.19;;;23.50;56.81
71361;BME280;59166;48.908;1.870;2022-07-30T21:05:43;100716.13;;;23.36;57.25
71361;BME280;59166;48.908;1.870;2022-07-30T21:10:45;100717.78;;;23.29;57.48
71361;BME280;59166;48.908;1.870;2022-07-30T21:15:45;100717.34;;;23.18;57.48
71361;BME280;59166;48.908;1.870;2022-07-30T21:20:46;100717.94;;;23.03;58.36
71361;BME280;59166;48.908;1.870;2022-07-30T21:25:48;100710.72;;;22.90;58.77
71361;BME280;59166;48.908;1.870;2022-07-30T21:30:49;100722.44;;;22.78;59.30
71361;BME280;59166;48.908;1.870;2022-07-30T21:35:50;100716.38;;;22.56;60.06
71361;BME280;59166;48.908;1.870;2022-07-30T21:40:52;100715.59;;;22.38;60.23
71361;BME280;59166;48.908;1.870;2022-07-30T21:45:53;100720.34;;;22.29;60.74
71361;BME280;59166;48.908;1.870;2022-07-30T21:50:54;100728.09;;;22.27;60.99
71361;BME280;59166;48.908;1.870;2022-07-30T21:55:56;100724.72;;;22.21;60.65
71361;BME280;59166;48.908;1.870;2022-07-30T22:01:00;100727.19;;;22.06;61.79
71361;BME280;59166;48.908;1.870;2022-07-30T22:06:01;100735.59;;;22.00;61.97
71361;BME280;59166;48.908;1.870;2022-07-30T22:11:03;100747.41;;;22.01;61.98
71361;BME280;59166;48.908;1.870;2022-07-30T22:16:04;100750.66;;;21.86;62.55
71361;BME280;59166;48.908;1.870;2022-07-30T22:21:04;100751.50;;;21.78;62.87
71361;BME280;59166;48.908;1.870;2022-07-30T22:26:07;100759.22;;;21.67;63.28
71361;BME280;59166;48.908;1.870;2022-07-30T22:31:07;100755.31;;;21.42;64.19
71361;BME280;59166;48.908;1.870;2022-07-30T22:36:08;100755.44;;;21.20;65.13
71361;BME280;59166;48.908;1.870;2022-07-30T22:41:10;100772.53;;;21.00;65.92
71361;BME280;59166;48.908;1.870;2022-07-30T22:46:11;100775.66;;;20.85;66.65
71361;BME280;59166;48.908;1.870;2022-07-30T22:51:11;100771.88;;;20.72;66.97
71361;BME280;59166;48.908;1.870;2022-07-30T22:56:13;100777.00;;;20.57;67.82
71361;BME280;59166;48.908;1.870;2022-07-30T23:01:14;100768.69;;;20.48;68.18
71361;BME280;59166;48.908;1.870;2022-07-30T23:06:14;100760.25;;;20.36;68.65
71361;BME280;59166;48.908;1.870;2022-07-30T23:11:16;100757.44;;;20.27;68.99
71361;BME280;59166;48.908;1.870;2022-07-30T23:16:17;100760.44;;;20.17;69.60
71361;BME280;59166;48.908;1.870;2022-07-30T23:21:18;100761.53;;;19.94;70.64
71361;BME280;59166;48.908;1.870;2022-07-30T23:26:20;100760.84;;;19.88;70.71
71361;BME280;59166;48.908;1.870;2022-07-30T23:31:21;100759.03;;;19.84;71.00
71361;BME280;59166;48.908;1.870;2022-07-30T23:36:21;100757.34;;;19.74;71.28
71361;BME280;59166;48.908;1.870;2022-07-30T23:41:23;100748.34;;;19.60;71.93
71361;BME280;59166;48.908;1.870;2022-07-30T23:46:24;100750.50;;;19.49;72.44
71361;BME280;59166;48.908;1.870;2022-07-30T23:51:25;100739.34;;;19.46;72.64
71361;BME280;59166;48.908;1.870;2022-07-30T23:56:27;100743.03;;;19.41;73.07
